Terminal Aerodrome Forecast
Issued by NWS Cleveland, OH

Home | Current Version | Previous Version | Text Only | Print | Product List | Glossary On
Versions: 1 2 3 4 5 6 7 8 9 10 11 12 13 14 15 16 17 18 19 20 21 22 23 24 25 26 27 28 29 30 31 32 33 34 35 36 37
941
FTUS41 KCLE 102256 AAB
TAFCLE
TAF AMD
KCLE 102256Z 1023/1124 30012G20KT 2SM -SHSN OVC025
      TEMPO 1023/1102 1/2SM SN OVC012
     FM110500 29014KT 4SM -SHSN OVC025
     FM110700 31015KT 6SM -SHSN OVC030
     FM111500 30015KT P6SM BKN035
     FM112200 27010KT P6SM BKN035=

USA.gov is the U.S. government's official web portal to all federal, state and local government web resources and services.